Time;durP1;ratioP1;P1;durP2;ratioP2;P2;SDS_P1;SDS_P2;PMS_P1;PMS_P2;Temp;Humidity;BMP_temperature;BMP_pressure;BME280_temperature;BME280_humidity;BME280_pressure;Samples;Min_cycle;Max_cycle;Signal;HPM_P1;HPM_P2
2022/02/06 00:01:47;;;;;;;0.10;0.10;;;5.20;99.90;;;;;;5073054;28;20313;-64
2022/02/06 00:04:13;;;;;;;0.10;0.10;;;5.10;99.90;;;;;;5088524;28;20068;-64
2022/02/06 00:06:39;;;;;;;0.10;0.10;;;5.10;99.90;;;;;;5072662;28;20043;-64
2022/02/06 00:09:05;;;;;;;0.00;0.00;;;5.10;99.90;;;;;;5073047;28;20431;-64
2022/02/06 00:11:31;;;;;;;0.00;0.00;;;5.10;99.90;;;;;;5072779;28;20025;-64
2022/02/06 00:13:56;;;;;;;0.00;0.00;;;5.10;99.90;;;;;;5072821;28;20476;-64
2022/02/06 00:16:23;;;;;;;0.03;0.03;;;5.10;99.90;;;;;;5072886;28;20032;-64
2022/02/06 00:18:49;;;;;;;0.00;0.00;;;5.10;99.90;;;;;;5072776;28;20030;-64
2022/02/06 00:21:17;;;;;;;0.00;0.00;;;5.10;99.90;;;;;;5072850;28;20596;-64
2022/02/06 00:23:46;;;;;;;6.55;2.65;;;5.10;99.90;;;;;;5072680;28;20090;-64
2022/02/06 00:26:30;;;;;;;0.00;0.00;;;5.10;99.90;;;;;;5072425;28;20397;-64
2022/02/06 00:31:46;;;;;;;0.00;0.00;;;5.20;99.90;;;;;;5072393;28;20051;-64
2022/02/06 00:35:15;;;;;;;0.00;0.00;;;5.20;99.90;;;;;;5071116;28;20040;-63
2022/02/06 00:39:45;;;;;;;0.10;0.10;;;5.20;99.90;;;;;;5071061;28;20029;-63
2022/02/06 00:42:11;;;;;;;0.20;0.20;;;5.20;99.90;;;;;;5071180;28;20081;-63
2022/02/06 00:44:37;;;;;;;0.00;0.00;;;5.20;99.90;;;;;;5072053;28;20108;-63
2022/02/06 00:47:04;;;;;;;0.00;0.00;;;5.20;99.90;;;;;;5071852;28;20102;-63
2022/02/06 00:49:31;;;;;;;0.30;0.30;;;5.20;99.90;;;;;;5072235;28;20033;-63
2022/02/06 00:54:27;;;;;;;0.20;0.20;;;5.20;99.90;;;;;;5071864;28;20037;-63
2022/02/06 00:56:53;;;;;;;0.10;0.10;;;5.20;99.90;;;;;;5087247;28;20526;-64
2022/02/06 00:59:20;;;;;;;0.13;0.13;;;5.20;99.90;;;;;;5071930;28;20040;-63
2022/02/06 01:01:46;;;;;;;17.88;1.27;;;5.20;99.90;;;;;;5071843;28;20024;-63
2022/02/06 01:04:14;;;;;;;18.63;1.65;;;5.20;99.90;;;;;;5070488;28;20405;-63
2022/02/06 01:06:41;;;;;;;0.08;0.08;;;5.20;99.90;;;;;;5086971;28;20021;-64
2022/02/06 01:09:08;;;;;;;0.32;0.32;;;5.20;99.90;;;;;;5071950;28;20111;-64
2022/02/06 01:11:37;;;;;;;0.00;0.00;;;5.20;99.90;;;;;;5054155;28;20036;-64
2022/02/06 01:16:46;;;;;;;0.00;0.00;;;5.20;99.90;;;;;;5070519;28;20028;-64
2022/02/06 01:19:18;;;;;;;0.10;0.10;;;5.20;99.90;;;;;;5071829;28;20107;-64
2022/02/06 01:22:02;;;;;;;0.00;0.00;;;5.20;99.90;;;;;;5070208;28;20028;-64
2022/02/06 01:27:10;;;;;;;0.10;0.10;;;5.20;99.90;;;;;;5085974;28;20468;-63
2022/02/06 01:29:57;;;;;;;0.00;0.00;;;5.10;99.90;;;;;;5087024;28;20029;-63
2022/02/06 01:32:29;;;;;;;0.00;0.00;;;5.10;99.90;;;;;;5086852;28;20028;-64
2022/02/06 01:35:20;;;;;;;0.10;0.10;;;5.00;99.90;;;;;;5070070;28;20066;-64
2022/02/06 01:40:36;;;;;;;1.50;1.40;;;5.10;99.90;;;;;;5071302;28;20103;-64
2022/02/06 01:43:07;;;;;;;0.03;0.03;;;5.10;99.90;;;;;;5085503;28;20036;-64
2022/02/06 01:46:08;;;;;;;0.10;0.10;;;5.20;99.90;;;;;;5086927;28;20060;-64
2022/02/06 02:05:02;;;;;;;0.00;0.00;;;5.90;99.90;;;;;;5090700;28;20500;-63
2022/02/06 02:13:12;;;;;;;0.00;0.00;;;6.10;99.90;;;;;;5074862;28;20037;-64
2022/02/06 02:23:51;;;;;;;0.00;0.00;;;6.10;99.90;;;;;;5075071;28;20119;-64
2022/02/06 02:29:34;;;;;;;0.00;0.00;;;6.10;99.90;;;;;;5087824;28;20115;-64
2022/02/06 02:45:11;;;;;;;0.13;0.13;;;6.10;99.90;;;;;;5072952;28;20036;-64
2022/02/06 02:47:40;;;;;;;0.15;0.15;;;6.10;99.90;;;;;;5089775;28;20032;-64
2022/02/06 02:50:13;;;;;;;0.00;0.00;;;6.20;99.90;;;;;;5089727;28;20056;-64
2022/02/06 02:52:53;;;;;;;2.55;1.35;;;6.20;99.90;;;;;;5089122;28;20024;-63
2022/02/06 03:05:32;;;;;;;0.00;0.00;;;6.20;99.90;;;;;;5072714;28;20113;-64
2022/02/06 03:08:03;;;;;;;0.00;0.00;;;6.10;99.90;;;;;;5073294;28;20036;-64
2022/02/06 03:10:31;;;;;;;0.00;0.00;;;6.20;99.90;;;;;;5073957;28;20032;-64
2022/02/06 03:12:57;;;;;;;0.00;0.00;;;6.20;99.90;;;;;;5089322;28;20122;-64
2022/02/06 03:15:39;;;;;;;0.20;0.20;;;6.20;99.90;;;;;;5089762;28;20114;-63
2022/02/06 03:18:07;;;;;;;0.10;0.10;;;6.10;99.90;;;;;;5073675;28;20028;-64
2022/02/06 03:20:34;;;;;;;0.00;0.00;;;6.10;99.90;;;;;;5073952;28;20489;-64
2022/02/06 03:23:04;;;;;;;0.00;0.00;;;6.00;99.90;;;;;;5073594;28;20060;-64
2022/02/06 03:25:29;;;;;;;0.00;0.00;;;6.00;99.90;;;;;;5072495;28;20029;-64
2022/02/06 03:27:56;;;;;;;0.00;0.00;;;6.10;99.90;;;;;;5089382;28;20109;-64
2022/02/06 03:30:25;;;;;;;0.85;0.85;;;6.10;99.90;;;;;;5073808;28;20033;-64
2022/02/06 03:32:52;;;;;;;0.10;0.10;;;6.00;99.90;;;;;;5073204;28;20056;-64
2022/02/06 03:35:18;;;;;;;0.00;0.00;;;6.10;99.90;;;;;;5073796;28;20082;-64
2022/02/06 03:37:44;;;;;;;0.00;0.00;;;6.00;99.90;;;;;;5073294;28;20409;-64
2022/02/06 03:40:19;;;;;;;0.00;0.00;;;6.00;99.90;;;;;;5073274;28;20028;-64
2022/02/06 03:42:56;;;;;;;0.25;0.25;;;6.00;99.90;;;;;;5073390;28;20090;-64
2022/02/06 03:45:25;;;;;;;0.00;0.00;;;6.10;99.90;;;;;;5073727;28;20078;-64
2022/02/06 03:47:57;;;;;;;0.03;0.03;;;6.10;99.90;;;;;;5088717;28;20036;-64
2022/02/06 03:50:32;;;;;;;0.10;0.10;;;6.20;99.90;;;;;;5072185;28;20059;-64
2022/02/06 03:52:58;;;;;;;0.00;0.00;;;6.20;99.90;;;;;;5071876;28;20036;-64
2022/02/06 03:55:25;;;;;;;0.20;0.20;;;6.20;99.90;;;;;;5073445;28;20041;-64
2022/02/06 03:57:52;;;;;;;0.00;0.00;;;6.20;99.90;;;;;;5088468;28;20427;-64
2022/02/06 04:00:20;;;;;;;0.00;0.00;;;6.20;99.90;;;;;;5073289;28;20033;-64
2022/02/06 04:02:47;;;;;;;1.55;1.45;;;6.10;99.90;;;;;;5073023;28;20520;-65
2022/02/06 04:05:14;;;;;;;0.00;0.00;;;6.10;99.90;;;;;;5071596;28;20120;-64
2022/02/06 04:07:45;;;;;;;0.10;0.10;;;6.10;99.90;;;;;;5073098;28;20425;-64
2022/02/06 04:10:13;;;;;;;0.00;0.00;;;6.00;99.90;;;;;;5088406;28;20041;-64
2022/02/06 04:12:41;;;;;;;0.15;0.15;;;6.00;99.90;;;;;;5073054;28;20040;-64
2022/02/06 04:15:22;;;;;;;0.10;0.10;;;6.00;99.90;;;;;;5072865;28;20040;-64
2022/02/06 04:18:06;;;;;;;0.05;0.05;;;6.00;99.90;;;;;;5072738;28;20028;-63
2022/02/06 04:20:32;;;;;;;5.13;2.40;;;6.00;99.90;;;;;;5072289;28;20494;-64
2022/02/06 04:22:57;;;;;;;0.00;0.00;;;6.00;99.90;;;;;;5071319;28;20055;-64
2022/02/06 04:25:23;;;;;;;0.00;0.00;;;5.90;99.90;;;;;;5072600;28;20058;-64
2022/02/06 04:27:49;;;;;;;0.10;0.10;;;5.90;99.90;;;;;;5072493;28;20121;-64
2022/02/06 04:30:15;;;;;;;0.00;0.00;;;5.90;99.90;;;;;;5087975;28;20032;-64
2022/02/06 04:32:40;;;;;;;0.00;0.00;;;5.90;99.90;;;;;;5087863;28;20401;-64
2022/02/06 04:35:13;;;;;;;0.10;0.10;;;5.90;99.90;;;;;;5072349;28;20083;-63
2022/02/06 04:37:52;;;;;;;0.00;0.00;;;5.80;99.90;;;;;;5071182;28;20037;-64
2022/02/06 04:40:36;;;;;;;0.00;0.00;;;5.80;99.90;;;;;;5071167;28;20024;-64
2022/02/06 04:48:26;;;;;;;0.10;0.10;;;5.80;99.90;;;;;;5072109;28;20127;-63
2022/02/06 05:15:19;;;;;;;1.45;1.27;;;5.60;99.90;;;;;;5084919;28;20052;-63
2022/02/06 05:31:27;;;;;;;2.53;1.23;;;5.60;99.90;;;;;;5009210;28;20044;-63
2022/02/06 05:33:52;;;;;;;0.00;0.00;;;5.60;99.90;;;;;;5063050;28;20052;-64
2022/02/06 05:36:19;;;;;;;0.03;0.03;;;5.50;99.90;;;;;;5070004;28;20029;-64
2022/02/06 05:38:44;;;;;;;0.10;0.10;;;5.60;99.90;;;;;;5071519;28;20059;-64
2022/02/06 05:41:10;;;;;;;0.10;0.10;;;5.50;99.90;;;;;;5071693;28;20037;-64
2022/02/06 05:43:36;;;;;;;0.10;0.10;;;5.50;99.90;;;;;;5071715;28;20024;-64
2022/02/06 05:46:04;;;;;;;0.08;0.08;;;5.50;99.90;;;;;;5071304;28;20028;-64
2022/02/06 05:48:30;;;;;;;0.10;0.10;;;5.60;99.90;;;;;;5086836;28;20032;-64
2022/02/06 05:50:56;;;;;;;0.05;0.05;;;5.60;99.90;;;;;;5071090;28;20504;-64
2022/02/06 05:53:22;;;;;;;0.10;0.10;;;5.50;99.90;;;;;;5071225;28;20036;-64
2022/02/06 05:55:48;;;;;;;0.00;0.00;;;5.50;99.90;;;;;;5071086;28;20021;-64
2022/02/06 05:58:13;;;;;;;0.10;0.10;;;5.50;99.90;;;;;;5086827;28;20395;-64
2022/02/06 06:00:39;;;;;;;0.15;0.15;;;5.50;99.90;;;;;;5071458;28;20028;-64
2022/02/06 06:03:06;;;;;;;0.10;0.10;;;5.50;99.90;;;;;;5071110;28;20537;-63
2022/02/06 06:05:32;;;;;;;0.17;0.17;;;5.50;99.90;;;;;;5071594;28;20055;-64
2022/02/06 06:07:59;;;;;;;0.10;0.10;;;5.50;99.90;;;;;;5069462;28;20115;-64
2022/02/06 06:10:25;;;;;;;0.10;0.10;;;5.50;99.90;;;;;;5071252;28;20457;-64
2022/02/06 06:12:51;;;;;;;0.45;0.45;;;5.50;99.90;;;;;;5071067;28;20116;-64
2022/02/06 06:15:17;;;;;;;3.08;2.17;;;5.50;99.90;;;;;;5071203;28;20036;-64
2022/02/06 06:17:43;;;;;;;0.28;0.28;;;5.50;99.90;;;;;;5071099;28;20040;-64
2022/02/06 06:20:14;;;;;;;0.00;0.00;;;5.50;99.90;;;;;;5071247;28;20074;-63
2022/02/06 06:22:40;;;;;;;0.10;0.10;;;5.50;99.90;;;;;;5071310;28;20037;-63
2022/02/06 06:25:08;;;;;;;0.90;0.90;;;5.50;99.90;;;;;;5070992;28;20108;-63
2022/02/06 06:27:34;;;;;;;0.43;0.43;;;5.50;99.90;;;;;;5069697;28;20067;-63
2022/02/06 06:30:00;;;;;;;0.08;0.08;;;5.50;99.90;;;;;;5069526;28;20029;-64
2022/02/06 06:32:26;;;;;;;0.90;0.90;;;5.60;99.90;;;;;;5070935;28;20135;-64
2022/02/06 06:34:54;;;;;;;0.00;0.00;;;5.50;99.90;;;;;;5086856;28;20033;-64
2022/02/06 06:37:21;;;;;;;0.00;0.00;;;5.60;99.90;;;;;;5070841;28;20024;-64
2022/02/06 06:39:48;;;;;;;0.08;0.08;;;5.50;99.90;;;;;;5086727;28;20037;-63
2022/02/06 06:42:15;;;;;;;0.00;0.00;;;5.50;99.90;;;;;;5086461;28;20538;-63
2022/02/06 06:44:43;;;;;;;0.00;0.00;;;5.50;99.90;;;;;;5073418;28;20400;-64
2022/02/06 06:47:09;;;;;;;0.00;0.00;;;5.50;99.90;;;;;;5089993;28;20029;-64
2022/02/06 06:49:36;;;;;;;0.35;0.35;;;5.50;99.90;;;;;;5074713;28;20029;-64
2022/02/06 06:52:04;;;;;;;0.00;0.00;;;5.50;99.90;;;;;;5074502;28;20040;-64
2022/02/06 06:54:40;;;;;;;0.08;0.08;;;5.50;99.90;;;;;;5074540;28;20055;-64
2022/02/06 07:04:52;;;;;;;0.00;0.00;;;5.50;99.90;;;;;;5072924;28;20055;-66
2022/02/06 07:07:18;;;;;;;0.00;0.00;;;5.50;99.90;;;;;;5081696;28;20363;-65
2022/02/06 07:09:44;;;;;;;6.13;1.00;;;5.50;99.90;;;;;;5065475;28;20298;-64
2022/02/06 07:12:13;;;;;;;0.00;0.00;;;5.50;99.90;;;;;;5074211;28;20033;-65
2022/02/06 07:14:43;;;;;;;0.10;0.10;;;5.50;99.90;;;;;;5064441;28;20029;-68
2022/02/06 07:17:09;;;;;;;0.28;0.28;;;5.60;99.90;;;;;;5053903;28;20575;-65
2022/02/06 07:19:35;;;;;;;0.08;0.08;;;5.60;99.90;;;;;;5053988;28;20155;-65
2022/02/06 07:22:01;;;;;;;0.00;0.00;;;5.60;99.90;;;;;;5053433;28;20025;-65
2022/02/06 07:24:28;;;;;;;0.30;0.30;;;5.70;99.90;;;;;;5054083;28;20037;-64
2022/02/06 07:27:01;;;;;;;0.00;0.00;;;5.70;99.90;;;;;;5054002;28;20072;-64
2022/02/06 07:29:27;;;;;;;0.00;0.00;;;5.70;99.90;;;;;;5051299;28;20151;-64
2022/02/06 07:31:55;;;;;;;0.30;0.30;;;5.70;99.90;;;;;;5069001;28;20116;-64
2022/02/06 07:34:21;;;;;;;0.00;0.00;;;5.70;99.90;;;;;;5053257;28;20044;-63
2022/02/06 07:36:48;;;;;;;0.10;0.10;;;5.70;99.90;;;;;;5054068;28;20142;-63
2022/02/06 07:39:14;;;;;;;0.03;0.03;;;5.80;99.90;;;;;;5073646;28;20136;-64
2022/02/06 07:41:40;;;;;;;0.00;0.00;;;5.80;99.90;;;;;;5073853;28;20524;-64
2022/02/06 07:44:06;;;;;;;5.88;0.50;;;5.80;99.90;;;;;;5089064;28;20039;-64
2022/02/06 07:46:41;;;;;;;0.10;0.10;;;5.80;99.90;;;;;;5073273;28;20035;-64
2022/02/06 07:49:07;;;;;;;0.10;0.10;;;5.90;99.90;;;;;;5049317;28;20441;-65
2022/02/06 07:51:35;;;;;;;0.00;0.00;;;5.90;99.90;;;;;;5033299;28;20108;-65
2022/02/06 07:54:02;;;;;;;0.00;0.00;;;5.90;99.90;;;;;;5048138;28;20038;-66
2022/02/06 07:56:29;;;;;;;0.03;0.03;;;5.90;99.90;;;;;;5032816;28;20033;-66
2022/02/06 07:58:55;;;;;;;0.22;0.22;;;6.00;99.90;;;;;;5033506;28;20037;-66
2022/02/06 08:01:21;;;;;;;0.10;0.10;;;6.00;99.90;;;;;;5033016;28;20584;-66
2022/02/06 08:03:47;;;;;;;0.08;0.08;;;6.00;99.90;;;;;;5033177;28;20143;-66
2022/02/06 08:06:14;;;;;;;0.08;0.08;;;6.00;99.90;;;;;;5033266;28;20061;-65
2022/02/06 08:08:39;;;;;;;0.00;0.00;;;6.00;99.90;;;;;;5031985;28;20045;-66
2022/02/06 08:11:11;;;;;;;0.10;0.10;;;6.00;99.90;;;;;;5033104;28;20473;-64
2022/02/06 08:13:43;;;;;;;0.10;0.10;;;6.10;99.90;;;;;;5033299;28;20059;-64
2022/02/06 08:16:10;;;;;;;0.00;0.00;;;6.10;99.90;;;;;;5031692;28;20140;-65
2022/02/06 08:18:40;;;;;;;0.00;0.00;;;6.10;99.90;;;;;;5031772;28;20033;-64
2022/02/06 08:21:11;;;;;;;0.00;0.00;;;6.10;99.90;;;;;;5031486;28;20026;-64
2022/02/06 08:23:37;;;;;;;0.00;0.00;;;6.10;99.90;;;;;;5032925;28;20029;-64
2022/02/06 08:26:06;;;;;;;0.00;0.00;;;6.10;99.90;;;;;;5031619;28;20095;-64
2022/02/06 08:28:33;;;;;;;0.00;0.00;;;6.10;99.90;;;;;;5031548;28;20041;-64
2022/02/06 08:31:03;;;;;;;0.00;0.00;;;6.10;99.90;;;;;;5031562;28;20037;-65
2022/02/06 08:33:30;;;;;;;0.00;0.00;;;6.10;99.90;;;;;;5031355;28;20128;-64
2022/02/06 08:36:00;;;;;;;0.00;0.00;;;6.10;99.90;;;;;;5031598;28;20033;-64
2022/02/06 08:38:27;;;;;;;0.10;0.10;;;6.10;99.90;;;;;;5032696;28;20041;-64
2022/02/06 08:40:53;;;;;;;0.00;0.00;;;6.20;99.90;;;;;;5031332;28;20501;-65
2022/02/06 08:43:20;;;;;;;0.00;0.00;;;6.20;99.90;;;;;;5032485;28;20057;-65
2022/02/06 08:45:46;;;;;;;0.13;0.13;;;6.20;99.90;;;;;;5032633;28;20083;-64
2022/02/06 08:48:12;;;;;;;0.10;0.10;;;6.20;99.90;;;;;;5032032;28;20029;-65
2022/02/06 08:50:38;;;;;;;0.08;0.08;;;6.20;99.90;;;;;;5030960;28;20044;-65
2022/02/06 08:53:04;;;;;;;0.00;0.00;;;6.30;99.90;;;;;;5032116;28;20450;-64
2022/02/06 08:55:30;;;;;;;0.43;0.43;;;6.30;99.90;;;;;;5032141;28;20033;-68
2022/02/06 08:57:56;;;;;;;0.10;0.10;;;6.30;99.90;;;;;;5056732;28;20166;-66
2022/02/06 09:00:25;;;;;;;2.92;1.17;;;6.40;99.90;;;;;;5087556;28;20115;-65
2022/02/06 09:02:51;;;;;;;0.00;0.00;;;6.50;99.90;;;;;;5071909;28;20481;-65
2022/02/06 09:05:18;;;;;;;0.30;0.30;;;6.50;99.90;;;;;;5072130;28;20101;-65
2022/02/06 09:07:46;;;;;;;1.95;1.77;;;6.60;99.90;;;;;;5071616;28;20062;-65
2022/02/06 09:10:14;;;;;;;0.30;0.30;;;6.60;99.90;;;;;;5071478;28;20111;-66
2022/02/06 09:12:50;;;;;;;0.10;0.10;;;6.60;99.90;;;;;;5056639;28;20028;-66
2022/02/06 09:15:17;;;;;;;0.10;0.10;;;6.60;99.90;;;;;;5067577;28;20470;-64
2022/02/06 09:17:44;;;;;;;0.00;0.00;;;6.70;99.90;;;;;;5051585;28;20028;-64
2022/02/06 09:20:11;;;;;;;0.10;0.10;;;6.70;99.90;;;;;;5052084;28;20033;-65
2022/02/06 09:22:40;;;;;;;0.30;0.30;;;6.70;99.90;;;;;;5051656;28;20037;-66
2022/02/06 09:25:07;;;;;;;0.00;0.00;;;6.80;99.90;;;;;;5067419;28;20033;-66
2022/02/06 09:27:35;;;;;;;0.10;0.10;;;6.80;99.90;;;;;;5043065;28;20033;-67
2022/02/06 09:30:07;;;;;;;0.00;0.00;;;6.90;99.90;;;;;;5032111;28;20439;-66
2022/02/06 09:37:30;;;;;;;0.00;0.00;;;7.10;99.90;;;;;;5031801;28;20030;-67
2022/02/06 09:39:57;;;;;;;0.00;0.00;;;7.20;99.90;;;;;;5031939;28;20040;-65
2022/02/06 09:42:26;;;;;;;0.10;0.10;;;7.30;99.90;;;;;;5031391;28;20033;-65
2022/02/06 09:44:57;;;;;;;0.10;0.10;;;7.30;99.90;;;;;;5030601;28;20037;-65
2022/02/06 09:47:27;;;;;;;0.00;0.00;;;7.30;99.90;;;;;;5031491;28;20038;-66
2022/02/06 09:49:53;;;;;;;0.00;0.00;;;7.30;99.90;;;;;;5031480;28;20040;-65
2022/02/06 09:52:28;;;;;;;0.00;0.00;;;7.30;99.90;;;;;;5031658;28;20444;-65
2022/02/06 09:55:09;;;;;;;0.00;0.00;;;7.30;99.90;;;;;;5030406;28;20038;-66
2022/02/06 09:58:01;;;;;;;0.10;0.10;;;7.30;99.90;;;;;;5030378;28;20031;-66
2022/02/06 10:00:30;;;;;;;0.00;0.00;;;7.30;99.90;;;;;;5033148;28;20045;-66
2022/02/06 10:03:03;;;;;;;0.00;0.00;;;7.30;99.90;;;;;;5030268;28;20036;-70
2022/02/06 10:05:33;;;;;;;0.13;0.13;;;7.40;99.90;;;;;;5031807;28;20061;-66
2022/02/06 10:08:20;;;;;;;0.00;0.00;;;7.30;99.90;;;;;;5031561;28;20041;-67
2022/02/06 10:11:06;;;;;;;0.00;0.00;;;7.30;99.90;;;;;;5046788;28;20037;-67
2022/02/06 10:13:36;;;;;;;0.68;0.68;;;7.40;99.90;;;;;;5030110;28;20490;-66
2022/02/06 10:16:10;;;;;;;0.10;0.10;;;7.40;99.90;;;;;;5031302;28;20037;-67
2022/02/06 10:18:37;;;;;;;0.00;0.00;;;7.40;99.90;;;;;;5033124;28;20116;-66
2022/02/06 10:21:04;;;;;;;0.52;0.52;;;7.50;99.90;;;;;;5035181;28;20474;-65
2022/02/06 10:23:43;;;;;;;0.00;0.00;;;7.50;99.90;;;;;;5035322;28;20095;-67
2022/02/06 10:26:53;;;;;;;0.00;0.00;;;7.50;99.90;;;;;;5034983;28;20459;-67
2022/02/06 10:31:59;;;;;;;0.00;0.00;;;7.60;99.90;;;;;;5034999;28;20033;-67
2022/02/06 10:34:27;;;;;;;0.40;0.40;;;7.60;99.90;;;;;;5034568;28;20107;-67
2022/02/06 10:37:18;;;;;;;0.00;0.00;;;7.60;99.90;;;;;;5034963;28;20027;-66
2022/02/06 10:39:53;;;;;;;0.00;0.00;;;7.60;99.90;;;;;;5035364;28;20037;-67
2022/02/06 10:42:25;;;;;;;0.00;0.00;;;7.60;99.90;;;;;;5034737;28;20341;-65
2022/02/06 10:45:20;;;;;;;0.00;0.00;;;7.60;99.90;;;;;;5033861;28;20037;-67
2022/02/06 10:47:51;;;;;;;12.43;3.40;;;7.50;99.90;;;;;;5033863;28;20029;-67
2022/02/06 10:50:25;;;;;;;0.10;0.10;;;7.60;99.90;;;;;;5034484;28;20037;-67
2022/02/06 10:52:51;;;;;;;0.00;0.00;;;7.60;99.90;;;;;;5034674;28;20367;-67
2022/02/06 10:55:20;;;;;;;0.00;0.00;;;7.60;99.90;;;;;;5033240;28;20029;-67
2022/02/06 10:57:59;;;;;;;0.00;0.00;;;7.50;99.90;;;;;;5034663;28;20112;-67
2022/02/06 11:00:31;;;;;;;0.08;0.08;;;7.50;99.90;;;;;;5033335;28;20446;-67
2022/02/06 11:03:04;;;;;;;0.00;0.00;;;7.50;99.90;;;;;;5034676;28;20056;-80
2022/02/06 11:05:53;;;;;;;0.00;0.00;;;7.50;99.90;;;;;;5017544;28;20041;-66
2022/02/06 11:08:31;;;;;;;0.00;0.00;;;7.50;99.90;;;;;;5036529;28;20044;-65
2022/02/06 11:11:03;;;;;;;0.00;0.00;;;7.50;99.90;;;;;;5054115;28;20032;-67
2022/02/06 11:13:31;;;;;;;0.10;0.10;;;7.50;99.90;;;;;;5054677;28;20090;-67
2022/02/06 11:16:03;;;;;;;0.10;0.10;;;7.40;99.90;;;;;;5052722;28;20044;-67
2022/02/06 11:18:32;;;;;;;;;;;7.40;99.90;;;;;;5052823;28;20029;-67
2022/02/06 11:21:10;;;;;;;0.00;0.00;;;7.30;99.90;;;;;;5036284;28;19920;-67
2022/02/06 11:23:38;;;;;;;0.75;0.75;;;7.30;99.90;;;;;;5069227;28;20036;-67
2022/02/06 11:26:11;;;;;;;0.00;0.00;;;7.30;99.90;;;;;;5054160;28;20025;-67
2022/02/06 11:28:38;;;;;;;0.00;0.00;;;7.20;99.90;;;;;;5068410;28;20072;-67
2022/02/06 11:31:04;;;;;;;0.00;0.00;;;7.20;99.90;;;;;;5053856;28;20048;-67
2022/02/06 11:33:30;;;;;;;0.05;0.05;;;7.20;99.90;;;;;;5053491;28;20504;-68
2022/02/06 11:36:12;;;;;;;0.00;0.00;;;7.30;99.90;;;;;;5054034;28;20027;-67
2022/02/06 11:45:19;;;;;;;0.00;0.00;;;7.30;99.90;;;;;;5063665;28;20032;-68
2022/02/06 11:47:55;;;;;;;23.05;0.75;;;7.20;99.90;;;;;;5051910;28;20487;-68
2022/02/06 11:50:22;;;;;;;0.00;0.00;;;7.20;99.90;;;;;;5053490;28;20029;-67
2022/02/06 11:52:52;;;;;;;0.00;0.00;;;7.10;99.90;;;;;;5068415;28;20098;-68
2022/02/06 11:55:50;;;;;;;0.00;0.00;;;7.10;99.90;;;;;;5053370;28;20041;-67
2022/02/06 11:58:34;;;;;;;0.00;0.00;;;7.00;99.90;;;;;;5051760;28;20033;-68
2022/02/06 12:01:06;;;;;;;0.00;0.00;;;7.00;99.90;;;;;;5053757;28;20490;-67
2022/02/06 12:03:47;;;;;;;1.58;0.82;;;7.00;99.90;;;;;;5068013;28;20040;-67
2022/02/06 12:06:14;;;;;;;0.00;0.00;;;7.00;99.90;;;;;;5054652;28;20043;-68
2022/02/06 12:08:58;;;;;;;0.00;0.00;;;6.90;99.90;;;;;;5051542;28;20393;-68
2022/02/06 12:11:28;;;;;;;0.00;0.00;;;6.90;99.90;;;;;;5068510;28;20037;-67
2022/02/06 12:14:22;;;;;;;0.00;0.00;;;6.80;99.90;;;;;;5072923;28;20154;-68
2022/02/06 12:20:13;;;;;;;0.00;0.00;;;6.70;99.90;;;;;;5072646;28;20028;-68
2022/02/06 12:22:49;;;;;;;0.00;0.00;;;6.60;99.90;;;;;;5088109;28;20036;-68
2022/02/06 12:25:28;;;;;;;0.00;0.00;;;6.60;99.90;;;;;;5072665;28;20020;-68
2022/02/06 12:28:17;;;;;;;0.00;0.00;;;6.50;99.90;;;;;;5072840;28;20021;-68
2022/02/06 12:30:45;;;;;;;0.10;0.10;;;6.50;99.90;;;;;;5072856;28;20115;-68
2022/02/06 12:33:39;;;;;;;0.00;0.00;;;6.50;99.90;;;;;;5087860;28;20040;-69
2022/02/06 12:38:49;;;;;;;0.15;0.15;;;6.40;99.90;;;;;;5072604;28;20033;-69
2022/02/06 12:41:27;;;;;;;0.20;0.20;;;6.30;99.90;;;;;;5071744;28;20051;-68
2022/02/06 12:43:57;;;;;;;0.10;0.10;;;6.30;99.90;;;;;;5069432;28;20052;-69
2022/02/06 12:46:25;;;;;;;0.00;0.00;;;6.30;99.90;;;;;;5067709;28;20025;-70
2022/02/06 12:48:57;;;;;;;0.63;0.57;;;6.30;99.90;;;;;;5052543;28;20504;-70
2022/02/06 12:51:30;;;;;;;0.10;0.10;;;6.30;99.90;;;;;;5052201;28;20064;-70
2022/02/06 12:54:06;;;;;;;0.47;0.47;;;6.30;99.90;;;;;;5052298;28;20039;-68
2022/02/06 12:56:33;;;;;;;0.60;0.60;;;6.20;99.90;;;;;;5052233;28;20036;-69
2022/02/06 12:59:00;;;;;;;0.05;0.05;;;6.20;99.90;;;;;;5052874;28;20039;-68
2022/02/06 13:01:41;;;;;;;0.03;0.03;;;6.20;99.90;;;;;;5052248;28;20032;-68
2022/02/06 13:04:14;;;;;;;0.00;0.00;;;6.30;99.90;;;;;;5046935;28;20557;-68
2022/02/06 13:06:48;;;;;;;0.00;0.00;;;6.30;99.90;;;;;;5031813;28;20034;-73
2022/02/06 13:09:25;;;;;;;0.10;0.10;;;6.30;99.90;;;;;;5032202;28;20037;-72
2022/02/06 13:12:00;;;;;;;0.00;0.00;;;6.40;99.90;;;;;;5040173;28;20035;-69
2022/02/06 13:18:05;;;;;;;0.03;0.03;;;6.30;99.90;;;;;;5052021;28;20044;-69
2022/02/06 13:25:51;;;;;;;5.68;1.98;;;6.40;99.90;;;;;;5007193;28;20057;-67
2022/02/06 13:29:26;;;;;;;0.00;0.00;;;6.50;99.90;;;;;;5051934;28;20056;-69
2022/02/06 13:31:24;;;;;;;0.00;0.00;;;6.50;99.90;;;;;;5042335;28;20040;-68
2022/02/06 13:37:04;;;;;;;0.00;0.00;;;6.50;99.90;;;;;;5009315;28;20549;-69
2022/02/06 13:39:36;;;;;;;0.00;0.00;;;6.50;99.90;;;;;;5024566;28;20521;-70
2022/02/06 13:42:17;;;;;;;0.00;0.00;;;6.50;99.90;;;;;;5031546;28;20479;-71
2022/02/06 13:44:45;;;;;;;0.20;0.20;;;6.50;99.90;;;;;;5031739;28;20084;-72
2022/02/06 13:47:12;;;;;;;0.03;0.03;;;6.50;99.90;;;;;;5031410;28;20486;-69
2022/02/06 13:49:44;;;;;;;0.10;0.10;;;6.60;99.90;;;;;;5031210;28;20453;-70
2022/02/06 13:52:13;;;;;;;0.00;0.00;;;6.50;99.90;;;;;;5031971;28;20033;-69
2022/02/06 13:54:43;;;;;;;0.35;0.35;;;6.50;99.90;;;;;;5034202;28;20108;-70
2022/02/06 13:57:09;;;;;;;0.00;0.00;;;6.50;99.90;;;;;;5002737;28;20025;-69
2022/02/06 13:59:42;;;;;;;0.00;0.00;;;6.50;99.90;;;;;;5034087;28;20116;-70
2022/02/06 14:02:12;;;;;;;0.13;0.13;;;6.50;99.90;;;;;;5035305;28;20026;-70
2022/02/06 14:04:42;;;;;;;0.00;0.00;;;6.50;99.90;;;;;;5033619;28;20663;-70
2022/02/06 14:07:21;;;;;;;0.00;0.00;;;6.60;99.90;;;;;;5039066;28;20045;-70
2022/02/06 14:10:08;;;;;;;0.00;0.00;;;6.50;99.90;;;;;;5091241;28;20439;-72
2022/02/06 14:12:55;;;;;;;0.00;0.00;;;6.50;99.90;;;;;;5090821;28;20035;-70
2022/02/06 14:15:24;;;;;;;0.00;0.00;;;6.60;99.90;;;;;;5075327;28;20065;-68
2022/02/06 14:17:54;;;;;;;0.00;0.00;;;6.60;99.90;;;;;;5075293;28;20455;-68
2022/02/06 14:20:25;;;;;;;0.10;0.10;;;6.60;99.90;;;;;;5090644;28;20029;-74
2022/02/06 14:22:57;;;;;;;;;;;6.60;99.90;;;;;;5075368;28;20385;-70
2022/02/06 14:25:28;;;;;;;0.00;0.00;;;6.60;99.90;;;;;;5074840;28;19949;-69
2022/02/06 14:27:54;;;;;;;0.00;0.00;;;6.60;99.90;;;;;;5074923;28;20039;-68
2022/02/06 14:30:27;;;;;;;0.00;0.00;;;6.50;99.90;;;;;;5074972;28;20086;-70
2022/02/06 14:33:18;;;;;;;0.17;0.17;;;6.60;99.90;;;;;;5089917;28;20044;-69
2022/02/06 14:35:57;;;;;;;0.10;0.10;;;6.70;99.90;;;;;;5074808;28;20036;-69
2022/02/06 14:38:36;;;;;;;0.00;0.00;;;6.70;99.90;;;;;;5076754;28;20059;-68
2022/02/06 14:44:00;;;;;;;0.00;0.00;;;6.60;99.90;;;;;;5053113;28;20028;-69
2022/02/06 14:46:34;;;;;;;0.00;0.00;;;6.60;99.90;;;;;;5054638;28;20021;-71
2022/02/06 14:49:07;;;;;;;0.00;0.00;;;6.80;99.90;;;;;;5054778;28;20048;-69
2022/02/06 14:51:36;;;;;;;0.10;0.10;;;6.80;99.90;;;;;;5052945;28;20040;-69
2022/02/06 14:54:08;;;;;;;0.00;0.00;;;6.70;99.90;;;;;;5053603;28;20041;-69
2022/02/06 14:56:39;;;;;;;0.00;0.00;;;6.70;99.90;;;;;;5053442;28;20025;-69
2022/02/06 14:59:05;;;;;;;0.00;0.00;;;6.70;99.90;;;;;;5054544;28;20033;-69
2022/02/06 15:01:33;;;;;;;0.10;0.10;;;6.70;99.90;;;;;;5053857;28;20059;-70
2022/02/06 15:03:58;;;;;;;0.10;0.10;;;6.70;99.90;;;;;;5068474;28;20041;-69
2022/02/06 15:06:24;;;;;;;0.00;0.00;;;6.70;99.90;;;;;;5053965;28;20059;-68
2022/02/06 15:08:53;;;;;;;0.00;0.00;;;6.70;99.90;;;;;;5066046;28;20079;-68
2022/02/06 15:11:20;;;;;;;0.08;0.08;;;6.60;99.90;;;;;;5034481;28;20423;-68
2022/02/06 15:13:46;;;;;;;0.00;0.00;;;6.60;99.90;;;;;;5032800;28;20054;-68
2022/02/06 15:16:17;;;;;;;0.00;0.00;;;6.70;99.90;;;;;;5034024;28;20459;-68
2022/02/06 15:18:53;;;;;;;0.00;0.00;;;6.80;99.90;;;;;;5033042;28;20029;-68
2022/02/06 15:21:20;;;;;;;0.00;0.00;;;6.80;99.90;;;;;;5034083;28;20063;-68
2022/02/06 15:23:46;;;;;;;0.00;0.00;;;6.80;99.90;;;;;;5033685;28;20025;-68
2022/02/06 15:26:11;;;;;;;0.00;0.00;;;6.70;99.90;;;;;;5034112;28;20045;-67
2022/02/06 15:28:37;;;;;;;0.00;0.00;;;6.80;99.90;;;;;;5033638;28;20398;-67
2022/02/06 15:31:03;;;;;;;0.00;0.00;;;6.70;99.90;;;;;;5034120;28;20034;-67
2022/02/06 15:33:29;;;;;;;0.00;0.00;;;6.70;99.90;;;;;;5033464;28;20049;-67
2022/02/06 15:35:55;;;;;;;0.00;0.00;;;6.70;99.90;;;;;;5032318;28;20040;-66
2022/02/06 15:38:22;;;;;;;0.00;0.00;;;6.70;99.90;;;;;;5032460;28;20037;-67
2022/02/06 15:40:50;;;;;;;0.00;0.00;;;6.80;99.90;;;;;;5033478;28;20030;-67
2022/02/06 15:43:16;;;;;;;0.00;0.00;;;6.80;99.90;;;;;;5033863;28;20029;-67
2022/02/06 15:45:42;;;;;;;0.10;0.10;;;6.80;99.90;;;;;;5033541;28;20041;-67
2022/02/06 15:48:09;;;;;;;0.28;0.28;;;6.80;99.90;;;;;;5031983;28;20135;-67
2022/02/06 15:50:37;;;;;;;0.00;0.00;;;6.80;99.90;;;;;;5033572;28;20026;-67
2022/02/06 15:53:03;;;;;;;0.00;0.00;;;6.70;99.90;;;;;;5032246;28;20033;-67
2022/02/06 15:55:29;;;;;;;0.10;0.10;;;6.70;99.90;;;;;;5033263;28;20080;-68